No requiere especial atencion con respecto al clima.   -   No hay Alarmas

Nearby METAR Reports

 

LELL - Sabadell, Spain
Distance from station: E 19km
Actualización: 02/12/2021 19:30
Despejado
Despejado
 Viento del NNE
Viento: NNE 13 km/h
Temperatura: 11°C
Rocío: 2°C
Humedad: 54%
Barómetro: 1009 hPa
Resumen: Despejado
Visibility: greater than 10 km
2021/12/02 18:30 LELL 021830Z AUTO 02007KT 300V070 CAVOK 11/02 Q1009
LEBL - Barcelona Airpor, Spain
Distance from station: SSE 30km
Actualización: 02/12/2021 19:30
Few Clouds
Few Clouds
 Viento del NO
Viento: NO 15 km/h, Racha: 33 km/h
Temperatura: 12°C
Rocío: 2°C
Humedad: 51%
Barómetro: 1008 hPa
Clouds: Few Clouds
Visibility: 10 km
Cloud details: Few Clouds 762 m
2021/12/02 18:30 LEBL 021830Z 32008G18KT 290V030 9999 FEW025 12/02 Q1008 NOSIG
 
LERS - Reus (civ/Mil), Spain
Distance from station: SO 71km
Actualización: 02/12/2021 19:30
Few Clouds
Few Clouds
 Viento del O
Viento: O 28 km/h
Temperatura: 11°C
Rocío: -1°C
Humedad: 44%
Barómetro: 1010 hPa
Clouds: Few Clouds
Visibility: 10 km
Cloud details: Few Clouds 1372 m
2021/12/02 18:30 LERS 021830Z 28015KT 250V320 9999 FEW045 11/M01 Q1010
LEGE - Gerona/Costa Bra, Spain
Distance from station: ENE 86km
Actualización: 02/12/2021 19:30
Muy nuboso
Muy nuboso
 Viento del NNO
Viento: NNO 7 km/h
Temperatura: 8°C
Sensación: 7°C
Rocío: -2°C
Humedad: 50%
Barómetro: 1009 hPa
Clouds: Muy nuboso
Visibility: 10 km
Cloud details: Few Clouds 1219 m
Muy nuboso 2438 m
2021/12/02 18:30 LEGE 021830Z 34004KT 260V060 9999 FEW040 BKN080 08/M02 Q1009
 
LESU - Pirineus/La Seu, Spain
Distance from station: NNO 101km
Actualización: 02/12/2021 17:00
NOT Current
Nearby showers, Muy nuboso
Nearby showers, Muy nuboso
 Viento del varies
Viento: varies 7 km/h, Racha: 26 km/h
Temperatura: 7°C
Sensación: 6°C
Rocío: -6°C
Humedad: 39%
Barómetro: 1008 hPa
Resumen: Nearby Showers
Clouds: Muy nuboso
Visibility: 10 km
Cloud details: Muy nuboso 1920 m
2021/12/02 16:00 LESU 021600Z VRB04G14KT 9999 VCSH BKN063 07/M06 Q1008
LEDA - Lleida/Alguaire, Spain
Distance from station: ONO 114km
Actualización: 02/12/2021 19:30
Despejado
Despejado
 Viento del NNO
Viento: NNO 22 km/h
Temperatura: 8°C
Sensación: 4°C
Rocío: -8°C
Humedad: 32%
Barómetro: 1012 hPa
Resumen: Despejado
Visibility: greater than 10 km
2021/12/02 18:30 LEDA 021830Z AUTO 34012KT 290V010 CAVOK 08/M08 Q1012